Main page
METAR-TAF:

METAR-TAF

Airports :

Piešťany, Slovakia

Piešťany Airport

latitude: 48-37-30N, longitude: 017-49-43E, elevation: 163 m

Current weather observation

The report was made 18 minutes ago, at 09:30 UTC
Wind 4 kt from the Southwest
Temperature -1°C
Humidity 93%
Pressure 1024 hPa
Visibility: 4000 m
Scattered clouds at a height of 800 ft
Overcast at a height of 1600 ft
light snow, mist

METAR: LZPP 230930Z 23004KT 4000 -SN BR SCT008 OVC016 M01/M02 Q1024

Time: 10:48 (09:48 UTC)

Forecast

The report was made 1 hour and 48 minutes ago, at 08:00 UTC
Forecast valid from 23 at 09 UTC to 23 at 18 UTC
Wind 4 kt from the Southwest
Visibility: 5000 m
Scattered clouds at a height of 1200 ft
Broken clouds at a height of 2500 ft
mist
Temporary
from 23 at 09 UTC to 23 at 12 UTC
Wind 2 kt from variable directions
Visibility: 3000 m
Scattered clouds at a height of 500 ft
Overcast at a height of 1000 ft
light snow

TAF: LZPP 230800Z 2309/2318 23004KT 5000 BR SCT012 BKN025 TEMPO 2309/2312 VRB02KT 3000 -SN SCT005 OVC010

Weather observations and forecasts of more than 4000 airports (METAR and TAF reports).

The available stations are represented by yellow and red dots on the map.

Hover mouse over dot to see the name of the station.

Then click to see weather observations and forecasts.

To change the map : click on the green buttons with a black cross to zoom in, on the green button with a dash to zoom out, or on the green arrows for adjacent maps.


METAR-TAF: